Terminal Aerodrome Forecast
Issued by NWS Shreveport, LA

Home | Current Version | Previous Version | Text Only | Print | Product List | Glossary On
Versions: 1 2 3 4 5 6 7 8 9 10 11 12 13 14 15 16 17 18 19 20
000
FTUS44 KSHV 212300
TAFMLU
TAF
KMLU 212321Z 2200/2224 VRB03KT P6SM SKC
     FM220600 00000KT 3SM BR SKC
      TEMPO 2208/2212 1/4SM FG VV002
     FM221300 00000KT P6SM SKC
     FM221500 05006KT P6SM SKC=

USA.gov is the U.S. government's official web portal to all federal, state and local government web resources and services.